createdAt,value
2022-07-25T00:01:33.248Z,17.12
2022-07-25T00:03:59.733Z,17.10
2022-07-25T00:06:26.594Z,17.08
2022-07-25T00:08:53.027Z,17.06
2022-07-25T00:11:19.556Z,17.04
2022-07-25T00:13:46.483Z,17.01
2022-07-25T00:16:13.114Z,16.98
2022-07-25T00:18:39.697Z,16.96
2022-07-25T00:21:06.438Z,16.93
2022-07-25T00:23:33.439Z,16.92
2022-07-25T00:26:01.317Z,16.90
2022-07-25T00:28:27.794Z,16.88
2022-07-25T00:30:55.311Z,16.86
2022-07-25T00:33:21.826Z,16.84
2022-07-25T00:35:48.200Z,16.82
2022-07-25T00:38:14.623Z,16.80
2022-07-25T00:40:41.238Z,16.78
2022-07-25T00:43:07.813Z,16.76
2022-07-25T00:45:34.257Z,16.75
2022-07-25T00:48:00.705Z,16.73
2022-07-25T00:50:27.152Z,16.72
2022-07-25T00:52:54.561Z,16.69
2022-07-25T00:55:23.902Z,16.66
2022-07-25T00:57:51.156Z,16.64
2022-07-25T01:00:18.132Z,16.63
2022-07-25T01:02:44.913Z,16.59
2022-07-25T01:05:11.845Z,16.53
2022-07-25T01:07:39.280Z,16.50
2022-07-25T01:10:07.675Z,16.49
2022-07-25T01:12:54.753Z,16.49
2022-07-25T01:15:23.741Z,16.47
2022-07-25T01:17:50.882Z,16.46
2022-07-25T01:20:25.339Z,16.44
2022-07-25T01:22:52.736Z,16.44
2022-07-25T01:25:19.251Z,16.43
2022-07-25T01:27:51.411Z,16.43
2022-07-25T01:30:23.979Z,16.42
2022-07-25T01:32:50.721Z,16.42
2022-07-25T01:35:17.387Z,16.41
2022-07-25T01:37:45.826Z,16.40
2022-07-25T01:40:13.300Z,16.40
2022-07-25T01:42:40.034Z,16.38
2022-07-25T01:45:08.740Z,16.38
2022-07-25T01:47:35.238Z,16.36
2022-07-25T01:50:01.898Z,16.33
2022-07-25T01:52:28.771Z,16.31
2022-07-25T01:54:55.303Z,16.29
2022-07-25T01:57:23.094Z,16.26
2022-07-25T01:59:59.180Z,16.23
2022-07-25T02:02:26.249Z,16.22
2022-07-25T02:04:53.174Z,16.21
2022-07-25T02:07:19.778Z,16.20
2022-07-25T02:09:46.629Z,16.17
2022-07-25T02:12:13.101Z,16.14
2022-07-25T02:14:40.292Z,16.10
2022-07-25T02:17:07.138Z,16.08
2022-07-25T02:19:33.744Z,16.05
2022-07-25T02:22:00.222Z,16.02
2022-07-25T02:24:26.812Z,16.00
2022-07-25T02:26:53.256Z,15.97
2022-07-25T02:29:21.876Z,15.95
2022-07-25T02:31:49.192Z,15.93
2022-07-25T02:34:15.639Z,15.91
2022-07-25T02:36:45.259Z,15.87
2022-07-25T02:39:11.906Z,15.85
2022-07-25T02:41:38.366Z,15.82
2022-07-25T02:44:06.080Z,15.81
2022-07-25T02:46:33.045Z,15.78
2022-07-25T02:49:00.125Z,15.78
2022-07-25T02:51:26.531Z,15.77
2022-07-25T02:53:58.193Z,15.76
2022-07-25T02:56:29.945Z,15.74
2022-07-25T02:58:59.414Z,15.74
2022-07-25T03:01:26.436Z,15.74
2022-07-25T03:03:53.060Z,15.74
2022-07-25T03:06:19.692Z,15.75
2022-07-25T03:08:47.402Z,15.75
2022-07-25T03:11:14.051Z,15.77
2022-07-25T03:13:40.499Z,15.77
2022-07-25T03:16:07.624Z,15.78
2022-07-25T03:18:34.051Z,15.81
2022-07-25T03:21:02.075Z,15.83
2022-07-25T03:23:30.442Z,15.86
2022-07-25T03:25:57.423Z,15.90
2022-07-25T03:28:24.782Z,15.96
2022-07-25T03:30:52.376Z,16.02
2022-07-25T03:33:19.147Z,16.10
2022-07-25T03:35:45.742Z,16.22
2022-07-25T03:38:12.202Z,16.36
2022-07-25T03:40:38.965Z,16.51
2022-07-25T03:43:05.790Z,16.75
2022-07-25T03:45:32.302Z,17.02
2022-07-25T03:47:58.852Z,17.29
2022-07-25T03:50:25.270Z,17.65
2022-07-25T03:52:51.784Z,17.99
2022-07-25T03:55:18.747Z,18.32
2022-07-25T03:57:45.520Z,18.72
2022-07-25T04:00:12.403Z,19.08
2022-07-25T04:02:39.489Z,19.21
2022-07-25T04:05:07.693Z,19.30
2022-07-25T04:07:35.114Z,19.34
2022-07-25T04:10:01.806Z,19.33
2022-07-25T04:12:28.346Z,19.35
2022-07-25T04:14:54.836Z,19.41
2022-07-25T04:17:21.530Z,19.67
2022-07-25T04:19:48.036Z,20.03
2022-07-25T04:22:16.275Z,20.29
2022-07-25T04:24:43.357Z,20.44
2022-07-25T04:27:09.801Z,20.66
2022-07-25T04:29:36.865Z,20.98
2022-07-25T04:32:03.676Z,21.30
2022-07-25T04:34:30.606Z,21.69
2022-07-25T04:36:57.427Z,22.09
2022-07-25T04:39:23.979Z,22.43
2022-07-25T04:41:50.968Z,22.83
2022-07-25T04:44:17.341Z,23.08
2022-07-25T04:46:43.952Z,23.14
2022-07-25T04:49:10.930Z,23.21
2022-07-25T04:51:37.491Z,23.44
2022-07-25T04:54:04.583Z,23.73
2022-07-25T04:56:31.402Z,24.00
2022-07-25T04:59:00.586Z,24.20
2022-07-25T05:01:29.734Z,24.29
2022-07-25T05:03:56.302Z,24.47
2022-07-25T05:06:25.964Z,24.73
2022-07-25T05:08:52.412Z,24.92
2022-07-25T05:11:19.249Z,25.12
2022-07-25T05:13:45.630Z,25.25
2022-07-25T05:16:12.291Z,25.44
2022-07-25T05:18:38.742Z,25.64
2022-07-25T05:21:05.112Z,25.86
2022-07-25T05:23:32.014Z,26.14
2022-07-25T05:25:58.463Z,26.49
2022-07-25T05:28:24.891Z,26.89
2022-07-25T05:30:51.417Z,27.22
2022-07-25T05:33:18.283Z,27.52
2022-07-25T05:35:46.322Z,27.77
2022-07-25T05:38:12.739Z,28.03
2022-07-25T05:40:39.209Z,28.21
2022-07-25T05:43:05.661Z,28.31
2022-07-25T05:45:32.236Z,28.35
2022-07-25T05:47:58.687Z,28.39
2022-07-25T05:50:25.144Z,28.51
2022-07-25T05:52:52.053Z,28.71
2022-07-25T05:55:19.226Z,28.92
2022-07-25T05:57:46.063Z,29.23
2022-07-25T06:00:13.009Z,29.59
2022-07-25T06:02:39.586Z,29.93
2022-07-25T06:05:06.334Z,30.27
2022-07-25T06:07:32.829Z,30.51
2022-07-25T06:09:59.343Z,30.65
2022-07-25T06:12:25.839Z,30.82
2022-07-25T06:14:52.704Z,30.98
2022-07-25T06:17:20.167Z,31.18
2022-07-25T06:19:46.801Z,31.33
2022-07-25T06:22:13.335Z,31.43
2022-07-25T06:24:41.284Z,31.57
2022-07-25T06:27:08.742Z,31.71
2022-07-25T06:29:35.258Z,31.87
2022-07-25T06:32:01.931Z,31.92
2022-07-25T06:34:29.960Z,31.98
2022-07-25T06:36:57.243Z,32.01
2022-07-25T06:39:25.203Z,32.08
2022-07-25T06:41:51.766Z,32.18
2022-07-25T06:44:18.477Z,32.26
2022-07-25T06:46:45.093Z,32.23
2022-07-25T06:49:11.712Z,32.28
2022-07-25T06:51:38.381Z,32.38
2022-07-25T06:54:05.021Z,32.46
2022-07-25T06:56:32.495Z,32.46
2022-07-25T06:58:59.837Z,32.35
2022-07-25T07:01:27.360Z,32.34
2022-07-25T07:03:54.019Z,32.38
2022-07-25T07:06:20.556Z,32.48
2022-07-25T07:08:48.306Z,32.53
2022-07-25T07:11:16.224Z,32.56
2022-07-25T07:13:42.896Z,32.55
2022-07-25T07:16:09.640Z,32.44
2022-07-25T07:18:37.223Z,32.40
2022-07-25T07:21:05.208Z,32.36
2022-07-25T07:23:33.004Z,32.25
2022-07-25T07:25:59.777Z,32.10
2022-07-25T07:28:26.480Z,32.04
2022-07-25T07:31:15.330Z,32.01
2022-07-25T07:33:39.787Z,31.84
2022-07-25T07:36:06.592Z,31.77
2022-07-25T07:38:33.995Z,31.72
2022-07-25T07:41:00.501Z,31.66
2022-07-25T07:43:30.365Z,31.57
2022-07-25T07:46:01.609Z,31.43
2022-07-25T07:48:30.402Z,31.32
2022-07-25T07:50:57.638Z,31.23
2022-07-25T07:53:44.147Z,31.18
2022-07-25T07:56:11.637Z,31.13
2022-07-25T07:58:44.810Z,31.06
2022-07-25T08:01:23.784Z,31.02
2022-07-25T08:03:52.818Z,30.95
2022-07-25T08:06:19.377Z,30.79
2022-07-25T08:08:45.973Z,30.73
2022-07-25T08:11:14.034Z,30.70
2022-07-25T08:13:40.536Z,30.64
2022-07-25T08:16:08.202Z,30.56
2022-07-25T08:18:34.732Z,30.44
2022-07-25T08:21:05.512Z,30.42
2022-07-25T08:23:34.824Z,30.45
2022-07-25T08:26:01.882Z,30.49
2022-07-25T08:28:28.429Z,30.55
2022-07-25T08:30:54.951Z,30.59
2022-07-25T08:33:21.842Z,30.58
2022-07-25T08:35:54.191Z,30.66
2022-07-25T08:38:23.299Z,30.72
2022-07-25T08:40:50.567Z,30.83
2022-07-25T08:43:18.247Z,30.93
2022-07-25T08:45:50.150Z,30.98
2022-07-25T08:48:19.485Z,31.01
2022-07-25T08:50:50.584Z,31.04
2022-07-25T08:53:35.763Z,31.05
2022-07-25T08:56:13.342Z,31.04
2022-07-25T08:58:43.786Z,31.08
2022-07-25T09:01:12.152Z,31.10
2022-07-25T09:03:40.903Z,31.15
2022-07-25T09:06:17.074Z,31.20
2022-07-25T09:08:59.783Z,31.22
2022-07-25T09:11:37.030Z,31.23
2022-07-25T09:14:13.187Z,31.27
2022-07-25T09:16:44.323Z,31.35
2022-07-25T09:19:16.139Z,31.38
2022-07-25T09:21:45.700Z,31.43
2022-07-25T09:24:16.626Z,31.44
2022-07-25T09:26:49.257Z,31.44
2022-07-25T09:29:22.019Z,31.47
2022-07-25T09:31:49.403Z,31.43
2022-07-25T09:34:44.073Z,31.37
2022-07-25T09:37:16.187Z,31.38
2022-07-25T09:39:47.151Z,31.41
2022-07-25T09:42:27.534Z,31.44
2022-07-25T09:45:02.367Z,31.46
2022-07-25T09:47:30.344Z,31.43
2022-07-25T09:49:57.228Z,31.45
2022-07-25T09:52:23.752Z,31.52
2022-07-25T09:54:50.819Z,31.60
2022-07-25T09:57:17.356Z,31.64
2022-07-25T09:59:44.382Z,31.67
2022-07-25T10:02:34.399Z,31.68
2022-07-25T10:05:18.191Z,31.67
2022-07-25T10:07:48.787Z,31.63
2022-07-25T10:10:26.323Z,31.67
2022-07-25T10:13:10.284Z,31.75
2022-07-25T10:15:48.436Z,31.88
2022-07-25T10:18:17.983Z,31.93
2022-07-25T10:20:46.081Z,31.91
2022-07-25T10:23:27.083Z,31.90
2022-07-25T10:26:09.112Z,31.91
2022-07-25T10:28:47.000Z,31.92
2022-07-25T10:31:18.023Z,31.92
2022-07-25T10:33:51.829Z,31.95
2022-07-25T10:36:20.691Z,32.02
2022-07-25T10:38:50.208Z,32.13
2022-07-25T10:41:16.874Z,32.22
2022-07-25T10:43:48.711Z,32.27
2022-07-25T10:46:22.632Z,32.27
2022-07-25T10:49:03.663Z,32.24
2022-07-25T10:51:56.072Z,32.30
2022-07-25T10:54:22.587Z,32.34
2022-07-25T10:56:58.179Z,32.40
2022-07-25T10:59:28.003Z,32.50
2022-07-25T11:01:54.961Z,32.55
2022-07-25T11:04:23.282Z,32.55
2022-07-25T11:06:49.965Z,32.55
2022-07-25T11:09:26.873Z,32.60
2022-07-25T11:11:56.911Z,32.63
2022-07-25T11:14:32.827Z,32.66
2022-07-25T11:17:19.622Z,32.71
2022-07-25T11:20:20.843Z,32.76
2022-07-25T11:22:55.213Z,32.80
2022-07-25T11:25:22.813Z,32.77
2022-07-25T11:27:56.669Z,32.82
2022-07-25T11:30:23.953Z,32.88
2022-07-25T11:32:55.536Z,32.88
2022-07-25T11:35:28.746Z,32.91
2022-07-25T11:37:56.623Z,32.90
2022-07-25T11:40:25.202Z,32.91
2022-07-25T11:42:53.886Z,32.91
2022-07-25T11:45:30.498Z,32.93
2022-07-25T11:48:07.041Z,32.94
2022-07-25T11:50:36.609Z,32.98
2022-07-25T11:53:10.834Z,33.02
2022-07-25T11:55:46.535Z,33.02
2022-07-25T11:58:14.021Z,33.00
2022-07-25T12:00:46.253Z,33.04
2022-07-25T12:03:19.606Z,33.07
2022-07-25T12:05:49.652Z,33.11
2022-07-25T12:08:22.668Z,33.17
2022-07-25T12:10:55.077Z,33.25
2022-07-25T12:13:27.189Z,33.27
2022-07-25T12:15:56.690Z,33.32
2022-07-25T12:18:23.562Z,33.33
2022-07-25T12:20:50.390Z,33.32
2022-07-25T12:23:16.910Z,33.33
2022-07-25T12:25:45.639Z,33.31
2022-07-25T12:28:13.341Z,33.31
2022-07-25T12:30:41.888Z,33.36
2022-07-25T12:33:11.372Z,33.39
2022-07-25T12:35:39.910Z,33.38
2022-07-25T12:38:07.553Z,33.37
2022-07-25T12:40:34.095Z,33.35
2022-07-25T12:43:00.639Z,33.39
2022-07-25T12:45:27.699Z,33.47
2022-07-25T12:47:55.010Z,33.49
2022-07-25T12:50:25.101Z,33.52
2022-07-25T12:52:51.913Z,33.58
2022-07-25T12:55:19.471Z,33.64
2022-07-25T12:57:50.309Z,33.64
2022-07-25T13:00:19.995Z,33.59
2022-07-25T13:02:48.459Z,33.62
2022-07-25T13:05:15.435Z,33.66
2022-07-25T13:07:42.120Z,33.71
2022-07-25T13:10:09.785Z,33.72
2022-07-25T13:12:36.759Z,33.76
2022-07-25T13:15:03.728Z,33.80
2022-07-25T13:17:32.336Z,33.84
2022-07-25T13:19:59.630Z,33.85
2022-07-25T13:22:27.493Z,33.87
2022-07-25T13:24:55.181Z,33.92
2022-07-25T13:27:23.302Z,33.98
2022-07-25T13:29:53.554Z,34.05
2022-07-25T13:32:20.657Z,34.07
2022-07-25T13:34:47.125Z,34.09
2022-07-25T13:37:14.004Z,34.09
2022-07-25T13:39:41.833Z,34.05
2022-07-25T13:42:08.714Z,34.05
2022-07-25T13:44:35.744Z,34.08
2022-07-25T13:47:02.335Z,34.08
2022-07-25T13:49:30.819Z,34.08
2022-07-25T13:51:57.315Z,34.06
2022-07-25T13:54:23.741Z,34.06
2022-07-25T13:56:50.170Z,34.10
2022-07-25T13:59:21.180Z,34.13
2022-07-25T14:01:50.573Z,34.12
2022-07-25T14:04:17.274Z,34.08
2022-07-25T14:06:43.877Z,34.07
2022-07-25T14:09:11.165Z,34.04
2022-07-25T14:11:38.072Z,33.99
2022-07-25T14:14:04.543Z,33.97
2022-07-25T14:16:33.176Z,33.98
2022-07-25T14:19:00.701Z,34.01
2022-07-25T14:21:28.485Z,34.01
2022-07-25T14:23:55.987Z,33.97
2022-07-25T14:26:22.494Z,33.91
2022-07-25T14:28:49.384Z,33.90
2022-07-25T14:31:16.853Z,33.94
2022-07-25T14:33:43.285Z,33.97
2022-07-25T14:36:10.661Z,34.00
2022-07-25T14:38:37.143Z,34.02
2022-07-25T14:41:06.684Z,34.03
2022-07-25T14:43:37.566Z,34.04
2022-07-25T14:46:04.828Z,34.04
2022-07-25T14:48:31.437Z,34.06
2022-07-25T14:50:57.927Z,34.06
2022-07-25T14:53:24.419Z,34.10
2022-07-25T14:55:50.900Z,34.10
2022-07-25T14:58:17.847Z,34.12
2022-07-25T15:00:45.498Z,34.14
2022-07-25T15:03:12.182Z,34.16
2022-07-25T15:05:40.584Z,34.14
2022-07-25T15:08:07.599Z,34.12
2022-07-25T15:10:34.583Z,34.09
2022-07-25T15:13:28.685Z,34.07
2022-07-25T15:15:49.508Z,34.03
2022-07-25T15:18:15.948Z,33.99
2022-07-25T15:20:43.610Z,33.96
2022-07-25T15:23:11.438Z,33.94
2022-07-25T15:26:01.051Z,33.93
2022-07-25T15:28:25.374Z,33.97
2022-07-25T15:30:51.858Z,33.97
2022-07-25T15:33:18.824Z,33.96
2022-07-25T15:35:46.586Z,33.94
2022-07-25T15:38:15.038Z,33.94
2022-07-25T15:40:45.230Z,33.93
2022-07-25T15:43:12.010Z,33.92
2022-07-25T15:45:40.257Z,33.91
2022-07-25T15:48:08.678Z,33.89
2022-07-25T15:50:36.385Z,33.87
2022-07-25T15:53:04.466Z,33.85
2022-07-25T15:55:32.830Z,33.82
2022-07-25T15:58:00.081Z,33.77
2022-07-25T16:00:29.826Z,33.66
2022-07-25T16:02:58.034Z,33.63
2022-07-25T16:05:25.038Z,33.63
2022-07-25T16:07:52.319Z,33.62
2022-07-25T16:10:18.835Z,33.56
2022-07-25T16:12:45.423Z,33.51
2022-07-25T16:15:12.147Z,33.47
2022-07-25T16:17:38.577Z,33.43
2022-07-25T16:20:08.612Z,33.37
2022-07-25T16:22:35.507Z,33.35
2022-07-25T16:25:03.660Z,33.34
2022-07-25T16:27:30.289Z,33.32
2022-07-25T16:29:56.881Z,33.27
2022-07-25T16:32:23.592Z,33.23
2022-07-25T16:34:50.025Z,33.22
2022-07-25T16:37:19.707Z,33.19
2022-07-25T16:39:46.221Z,33.18
2022-07-25T16:42:12.766Z,33.15
2022-07-25T16:44:39.252Z,33.12
2022-07-25T16:47:07.636Z,33.10
2022-07-25T16:49:34.308Z,33.06
2022-07-25T16:52:00.824Z,33.01
2022-07-25T16:54:27.786Z,32.96
2022-07-25T16:56:57.274Z,32.92
2022-07-25T16:59:26.717Z,32.89
2022-07-25T17:01:53.302Z,32.84
2022-07-25T17:04:19.980Z,32.79
2022-07-25T17:06:46.732Z,32.73
2022-07-25T17:09:13.806Z,32.67
2022-07-25T17:11:40.607Z,32.61
2022-07-25T17:14:07.501Z,32.57
2022-07-25T17:16:34.519Z,32.53
2022-07-25T17:19:03.419Z,32.46
2022-07-25T17:21:30.299Z,32.41
2022-07-25T17:23:56.784Z,32.37
2022-07-25T17:26:23.380Z,32.33
2022-07-25T17:28:50.475Z,32.28
2022-07-25T17:31:18.355Z,32.23
2022-07-25T17:33:44.868Z,32.17
2022-07-25T17:36:11.498Z,32.09
2022-07-25T17:38:42.487Z,32.02
2022-07-25T17:41:13.073Z,31.95
2022-07-25T17:43:40.847Z,31.86
2022-07-25T17:46:10.519Z,31.77
2022-07-25T17:48:37.047Z,31.67
2022-07-25T17:51:05.574Z,31.57
2022-07-25T17:53:32.539Z,31.47
2022-07-25T17:55:59.020Z,31.35
2022-07-25T17:58:25.515Z,31.24
2022-07-25T18:00:51.921Z,31.12
2022-07-25T18:03:18.568Z,31.01
2022-07-25T18:05:45.101Z,30.88
2022-07-25T18:08:11.519Z,30.74
2022-07-25T18:10:38.185Z,30.61
2022-07-25T18:13:04.754Z,30.47
2022-07-25T18:15:31.707Z,30.33
2022-07-25T18:17:58.791Z,30.19
2022-07-25T18:20:27.425Z,30.04
2022-07-25T18:22:58.011Z,29.89
2022-07-25T18:25:24.461Z,29.76
2022-07-25T18:27:50.932Z,29.63
2022-07-25T18:30:18.689Z,29.48
2022-07-25T18:32:45.298Z,29.33
2022-07-25T18:35:12.847Z,29.18
2022-07-25T18:37:39.420Z,29.04
2022-07-25T18:40:07.487Z,28.89
2022-07-25T18:42:35.401Z,28.75
2022-07-25T18:45:04.332Z,28.61
2022-07-25T18:47:34.476Z,28.47
2022-07-25T18:50:03.220Z,28.34
2022-07-25T18:52:34.469Z,28.22
2022-07-25T18:55:08.412Z,28.10
2022-07-25T18:57:37.003Z,27.98
2022-07-25T19:00:07.068Z,27.86
2022-07-25T19:02:34.341Z,27.75
2022-07-25T19:05:01.314Z,27.63
2022-07-25T19:07:30.582Z,27.52
2022-07-25T19:09:57.081Z,27.40
2022-07-25T19:12:26.031Z,27.30
2022-07-25T19:14:54.061Z,27.21
2022-07-25T19:17:20.573Z,27.13
2022-07-25T19:19:47.078Z,27.04
2022-07-25T19:22:13.548Z,26.96
2022-07-25T19:24:40.120Z,26.88
2022-07-25T19:27:06.668Z,26.79
2022-07-25T19:29:33.479Z,26.71
2022-07-25T19:32:00.014Z,26.63
2022-07-25T19:34:29.582Z,26.58
2022-07-25T19:36:56.314Z,26.54
2022-07-25T19:39:23.961Z,26.50
2022-07-25T19:41:53.651Z,26.45
2022-07-25T19:44:23.257Z,26.42
2022-07-25T19:46:49.932Z,26.39
2022-07-25T19:49:16.660Z,26.35
2022-07-25T19:51:43.294Z,26.31
2022-07-25T19:54:10.740Z,26.25
2022-07-25T19:56:37.727Z,26.19
2022-07-25T19:59:06.113Z,26.13
2022-07-25T20:01:36.226Z,26.06
2022-07-25T20:04:05.474Z,26.00
2022-07-25T20:06:36.300Z,25.90
2022-07-25T20:09:03.900Z,25.83
2022-07-25T20:11:30.747Z,25.71
2022-07-25T20:13:57.406Z,25.63
2022-07-25T20:16:24.148Z,25.55
2022-07-25T20:18:51.201Z,25.46
2022-07-25T20:21:18.019Z,25.38
2022-07-25T20:23:47.556Z,25.29
2022-07-25T20:26:14.900Z,25.22
2022-07-25T20:28:41.777Z,25.19
2022-07-25T20:31:09.205Z,25.15
2022-07-25T20:33:36.226Z,25.09
2022-07-25T20:36:03.852Z,25.02
2022-07-25T20:38:32.005Z,24.94
2022-07-25T20:40:59.948Z,24.84
2022-07-25T20:43:27.939Z,24.74
2022-07-25T20:45:54.680Z,24.66
2022-07-25T20:48:21.215Z,24.58
2022-07-25T20:50:48.005Z,24.50
2022-07-25T20:53:14.628Z,24.42
2022-07-25T20:55:41.194Z,24.35
2022-07-25T20:58:07.674Z,24.27
2022-07-25T21:00:34.440Z,24.18
2022-07-25T21:03:02.633Z,24.11
2022-07-25T21:05:29.055Z,24.05
2022-07-25T21:07:56.287Z,24.00
2022-07-25T21:10:23.244Z,23.95
2022-07-25T21:12:49.744Z,23.92
2022-07-25T21:15:16.252Z,23.87
2022-07-25T21:17:43.521Z,23.84
2022-07-25T21:20:13.409Z,23.79
2022-07-25T21:22:40.958Z,23.76
2022-07-25T21:25:08.884Z,23.73
2022-07-25T21:27:36.619Z,23.71
2022-07-25T21:30:05.228Z,23.68
2022-07-25T21:32:32.007Z,23.66
2022-07-25T21:34:59.189Z,23.64
2022-07-25T21:37:25.947Z,23.62
2022-07-25T21:39:52.596Z,23.60
2022-07-25T21:42:19.144Z,23.60
2022-07-25T21:44:45.640Z,23.57
2022-07-25T21:47:12.185Z,23.57
2022-07-25T21:49:57.399Z,23.55
2022-07-25T21:52:29.829Z,23.54
2022-07-25T21:55:04.741Z,23.52
2022-07-25T21:57:31.431Z,23.50
2022-07-25T21:59:58.060Z,23.48
2022-07-25T22:02:25.075Z,23.47
2022-07-25T22:04:51.583Z,23.45
2022-07-25T22:07:19.091Z,23.43
2022-07-25T22:09:45.508Z,23.42
2022-07-25T22:12:12.094Z,23.40
2022-07-25T22:14:38.652Z,23.37
2022-07-25T22:17:05.267Z,23.36
2022-07-25T22:19:32.218Z,23.34
2022-07-25T22:21:58.763Z,23.34
2022-07-25T22:24:25.261Z,23.32
2022-07-25T22:26:51.637Z,23.31
2022-07-25T22:29:18.473Z,23.29
2022-07-25T22:31:45.040Z,23.28
2022-07-25T22:34:11.951Z,23.27
2022-07-25T22:36:38.385Z,23.27
2022-07-25T22:39:05.244Z,23.26
2022-07-25T22:41:32.029Z,23.25
2022-07-25T22:44:00.078Z,23.24
2022-07-25T22:46:31.008Z,23.22
2022-07-25T22:48:58.449Z,23.21
2022-07-25T22:51:25.971Z,23.19
2022-07-25T22:53:53.211Z,23.18
2022-07-25T22:56:20.186Z,23.17
2022-07-25T22:58:47.023Z,23.16
2022-07-25T23:01:17.140Z,23.15
2022-07-25T23:03:43.774Z,23.14
2022-07-25T23:06:10.940Z,23.13
2022-07-25T23:08:37.480Z,23.12
2022-07-25T23:11:05.521Z,23.11
2022-07-25T23:13:32.946Z,23.10
2022-07-25T23:15:59.584Z,23.08
2022-07-25T23:18:26.088Z,23.07
2022-07-25T23:20:52.586Z,23.05
2022-07-25T23:23:20.397Z,23.03
2022-07-25T23:25:46.925Z,23.01
2022-07-25T23:28:13.314Z,22.99
2022-07-25T23:30:40.698Z,22.98
2022-07-25T23:33:08.177Z,22.97
2022-07-25T23:35:34.743Z,22.97
2022-07-25T23:38:01.494Z,22.97
2022-07-25T23:40:27.908Z,22.98
2022-07-25T23:42:54.357Z,22.98
2022-07-25T23:45:22.143Z,22.99
2022-07-25T23:47:52.047Z,23.00
2022-07-25T23:50:19.601Z,23.02
2022-07-25T23:52:45.994Z,23.04
2022-07-25T23:55:12.493Z,23.08
2022-07-25T23:57:39.107Z,23.13
